createdAt,value
2023-04-08T00:01:46.909Z,16.97
2023-04-08T00:04:20.444Z,15.77
2023-04-08T00:06:53.548Z,15.70
2023-04-08T00:09:27.989Z,17.80
2023-04-08T00:12:02.334Z,22.23
2023-04-08T00:14:35.170Z,19.73
2023-04-08T00:17:08.191Z,20.10
2023-04-08T00:19:41.442Z,21.17
2023-04-08T00:22:21.201Z,21.63
2023-04-08T00:24:53.904Z,21.53
2023-04-08T00:27:28.163Z,24.50
2023-04-08T00:30:01.753Z,24.63
2023-04-08T00:32:38.324Z,24.43
2023-04-08T00:35:12.902Z,25.80
2023-04-08T00:37:45.902Z,23.00
2023-04-08T00:40:18.702Z,27.50
2023-04-08T00:42:52.878Z,25.87
2023-04-08T00:45:25.643Z,25.50
2023-04-08T00:47:58.986Z,23.70
2023-04-08T00:50:32.034Z,28.67
2023-04-08T00:53:04.777Z,26.43
2023-04-08T00:55:37.876Z,33.27
2023-04-08T00:58:12.498Z,29.07
2023-04-08T01:00:51.283Z,30.43
2023-04-08T01:03:28.455Z,28.27
2023-04-08T01:06:04.333Z,36.43
2023-04-08T01:08:39.316Z,29.53
2023-04-08T01:11:13.098Z,28.27
2023-04-08T01:13:47.751Z,28.13
2023-04-08T01:16:21.160Z,31.23
2023-04-08T01:18:54.444Z,31.93
2023-04-08T01:21:28.950Z,29.93
2023-04-08T01:24:07.244Z,25.47
2023-04-08T01:26:41.609Z,33.83
2023-04-08T01:29:15.620Z,33.17
2023-04-08T01:31:48.663Z,34.10
2023-04-08T01:34:30.294Z,31.57
2023-04-08T01:37:03.377Z,35.30
2023-04-08T01:39:36.951Z,37.23
2023-04-08T01:42:12.240Z,36.93
2023-04-08T01:44:45.533Z,36.83
2023-04-08T01:47:18.560Z,33.20
2023-04-08T01:49:52.068Z,37.40
2023-04-08T01:52:26.745Z,31.93
2023-04-08T01:55:01.902Z,37.23
2023-04-08T01:57:37.240Z,34.37
2023-04-08T02:00:11.301Z,32.90
2023-04-08T02:02:47.354Z,35.27
2023-04-08T02:05:20.413Z,34.07
2023-04-08T02:07:55.419Z,32.70
2023-04-08T02:10:29.811Z,36.40
2023-04-08T02:13:04.309Z,35.60
2023-04-08T02:15:38.933Z,35.43
2023-04-08T02:18:14.628Z,30.93
2023-04-08T02:20:49.648Z,33.83
2023-04-08T02:23:23.761Z,37.23
2023-04-08T02:25:57.603Z,40.40
2023-04-08T02:28:31.916Z,34.80
2023-04-08T02:31:07.915Z,34.13
2023-04-08T02:33:41.144Z,36.87
2023-04-08T02:36:17.147Z,34.87
2023-04-08T02:38:50.621Z,32.00
2023-04-08T02:41:23.973Z,35.53
2023-04-08T02:43:58.393Z,35.17
2023-04-08T02:46:33.545Z,38.70
2023-04-08T02:49:06.343Z,34.17
2023-04-08T02:51:39.234Z,30.93
2023-04-08T02:54:12.032Z,33.40
2023-04-08T02:56:44.776Z,32.17
2023-04-08T02:59:18.864Z,33.23
2023-04-08T03:01:52.423Z,32.90
2023-04-08T03:04:25.336Z,38.40
2023-04-08T03:06:58.116Z,32.17
2023-04-08T03:09:30.893Z,34.70
2023-04-08T03:12:04.338Z,35.30
2023-04-08T03:14:40.562Z,33.40
2023-04-08T03:17:13.403Z,34.80
2023-04-08T03:19:46.190Z,42.27
2023-04-08T03:22:19.002Z,37.83
2023-04-08T03:24:51.804Z,37.03
2023-04-08T03:27:24.511Z,34.60
2023-04-08T03:29:58.961Z,37.57
2023-04-08T03:32:32.070Z,37.87
2023-04-08T03:35:08.291Z,36.77
2023-04-08T03:37:41.065Z,39.27
2023-04-08T03:40:21.290Z,36.07
2023-04-08T03:42:54.158Z,38.77
2023-04-08T03:45:31.188Z,41.10
2023-04-08T03:48:03.991Z,37.87
2023-04-08T03:50:36.865Z,39.47
2023-04-08T03:53:11.468Z,38.53
2023-04-08T03:55:44.337Z,37.60
2023-04-08T03:58:17.136Z,46.47
2023-04-08T04:00:51.437Z,37.00
2023-04-08T04:03:24.795Z,39.73
2023-04-08T04:05:57.703Z,35.83
2023-04-08T04:08:30.531Z,38.30
2023-04-08T04:11:03.244Z,38.83
2023-04-08T04:13:36.042Z,36.50
2023-04-08T04:16:10.465Z,36.73
2023-04-08T04:18:43.405Z,40.97
2023-04-08T04:21:16.237Z,38.43
2023-04-08T04:23:50.915Z,36.47
2023-04-08T04:26:23.809Z,37.20
2023-04-08T04:28:56.744Z,42.40
2023-04-08T04:31:30.882Z,37.07
2023-04-08T04:34:03.782Z,41.83
2023-04-08T04:36:36.474Z,42.07
2023-04-08T04:39:10.265Z,38.07
2023-04-08T04:41:44.280Z,42.33
2023-04-08T04:44:17.746Z,36.47
2023-04-08T04:46:52.568Z,36.63
2023-04-08T04:49:25.422Z,42.27
2023-04-08T04:51:58.337Z,39.77
2023-04-08T04:54:34.169Z,36.87
2023-04-08T04:57:16.345Z,38.77
2023-04-08T04:59:49.316Z,38.87
2023-04-08T05:02:23.588Z,34.63
2023-04-08T05:04:56.718Z,36.23
2023-04-08T05:07:29.567Z,36.07
2023-04-08T05:10:06.276Z,37.27
2023-04-08T05:12:39.262Z,35.00
2023-04-08T05:15:13.760Z,35.37
2023-04-08T05:17:48.221Z,37.20
2023-04-08T05:20:21.473Z,43.23
2023-04-08T05:22:57.163Z,39.40
2023-04-08T05:25:31.248Z,39.10
2023-04-08T05:28:04.302Z,38.13
2023-04-08T05:30:37.197Z,41.77
2023-04-08T05:33:11.841Z,37.83
2023-04-08T05:35:44.538Z,39.83
2023-04-08T05:38:17.336Z,39.97
2023-04-08T05:40:50.374Z,36.97
2023-04-08T05:43:23.011Z,40.60
2023-04-08T05:45:56.180Z,39.97
2023-04-08T05:48:30.670Z,40.00
2023-04-08T05:51:04.426Z,41.00
2023-04-08T05:53:37.207Z,40.40
2023-04-08T05:56:10.135Z,40.43
2023-04-08T05:58:42.918Z,43.27
2023-04-08T06:01:15.812Z,44.73
2023-04-08T06:03:50.074Z,45.27
2023-04-08T06:06:23.881Z,41.27
2023-04-08T06:08:56.723Z,43.27
2023-04-08T06:11:30.273Z,44.33
2023-04-08T06:14:02.825Z,40.57
2023-04-08T06:16:36.947Z,45.83
2023-04-08T06:19:11.149Z,39.53
2023-04-08T06:21:48.766Z,46.03
2023-04-08T06:24:21.528Z,49.80
2023-04-08T06:26:54.684Z,43.03
2023-04-08T06:29:29.864Z,44.80
2023-04-08T06:32:02.672Z,44.13
2023-04-08T06:34:36.771Z,49.33
2023-04-08T06:37:09.489Z,45.13
2023-04-08T06:39:42.363Z,43.60
2023-04-08T06:42:15.154Z,45.20
2023-04-08T06:44:49.720Z,41.33
2023-04-08T06:47:22.516Z,44.90
2023-04-08T06:49:59.894Z,43.50
2023-04-08T06:52:32.589Z,43.20
2023-04-08T06:55:07.194Z,47.17
2023-04-08T06:57:40.136Z,41.17
2023-04-08T07:00:15.962Z,45.87
2023-04-08T07:02:50.806Z,45.40
2023-04-08T07:05:25.210Z,42.80
2023-04-08T07:07:58.046Z,44.97
2023-04-08T07:10:30.790Z,42.07
2023-04-08T07:13:03.593Z,49.90
2023-04-08T07:15:36.554Z,44.23
2023-04-08T07:18:09.584Z,41.43
2023-04-08T07:20:45.269Z,37.73
2023-04-08T07:23:17.959Z,45.07
2023-04-08T07:25:50.776Z,42.53
2023-04-08T07:28:23.584Z,40.33
2023-04-08T07:30:56.354Z,40.37
2023-04-08T07:33:29.425Z,39.80
2023-04-08T07:36:04.216Z,37.50
2023-04-08T07:38:37.368Z,43.23
2023-04-08T07:41:10.779Z,45.90
2023-04-08T07:43:43.521Z,37.57
2023-04-08T07:46:16.438Z,40.77
2023-04-08T07:48:53.229Z,44.13
2023-04-08T07:51:27.765Z,38.37
2023-04-08T07:54:01.165Z,40.37
2023-04-08T07:56:34.049Z,37.17
2023-04-08T07:59:10.043Z,39.60
2023-04-08T08:01:42.963Z,39.13
2023-04-08T08:04:15.987Z,43.27
2023-04-08T08:06:50.760Z,39.57
2023-04-08T08:09:23.828Z,37.03
2023-04-08T08:11:57.073Z,37.43
2023-04-08T08:14:30.002Z,43.30
2023-04-08T08:17:04.432Z,36.03
2023-04-08T08:19:37.505Z,39.00
2023-04-08T08:22:12.664Z,39.00
2023-04-08T08:24:46.109Z,37.87
2023-04-08T08:27:21.612Z,34.10
2023-04-08T08:29:54.724Z,35.17
2023-04-08T08:32:27.705Z,35.70
2023-04-08T08:35:00.589Z,38.43
2023-04-08T08:37:34.631Z,38.77
2023-04-08T08:40:07.953Z,42.30
2023-04-08T08:42:40.980Z,37.63
2023-04-08T08:45:14.957Z,39.80
2023-04-08T08:47:50.279Z,41.47
2023-04-08T08:50:24.016Z,31.90
2023-04-08T08:52:58.370Z,33.10
2023-04-08T08:55:50.755Z,35.87
2023-04-08T08:58:27.200Z,35.93
2023-04-08T09:01:00.004Z,38.47
2023-04-08T09:03:33.932Z,36.33
2023-04-08T09:06:06.736Z,36.73
2023-04-08T09:08:40.802Z,31.50
2023-04-08T09:11:14.668Z,33.27
2023-04-08T09:13:47.832Z,39.17
2023-04-08T09:16:23.191Z,37.80
2023-04-08T09:18:56.011Z,37.83
2023-04-08T09:21:28.982Z,40.80
2023-04-08T09:24:03.287Z,37.27
2023-04-08T09:26:37.426Z,32.40
2023-04-08T09:29:25.411Z,35.60
2023-04-08T09:32:02.806Z,33.80
2023-04-08T09:34:35.911Z,30.17
2023-04-08T09:37:08.709Z,34.23
2023-04-08T09:39:42.881Z,34.97
2023-04-08T09:42:16.178Z,35.73
2023-04-08T09:44:49.216Z,37.40
2023-04-08T09:47:26.026Z,38.30
2023-04-08T09:50:03.110Z,39.23
2023-04-08T09:52:40.408Z,34.43
2023-04-08T09:55:14.941Z,35.57
2023-04-08T09:57:52.777Z,36.00
2023-04-08T10:00:26.574Z,32.87
2023-04-08T10:03:03.140Z,31.07
2023-04-08T10:05:39.549Z,32.70
2023-04-08T10:08:12.519Z,31.67
2023-04-08T10:10:52.050Z,31.33
2023-04-08T10:13:28.675Z,33.53
2023-04-08T10:16:22.806Z,31.63
2023-04-08T10:18:56.805Z,33.20
2023-04-08T10:21:33.143Z,30.97
2023-04-08T10:24:10.483Z,31.73
2023-04-08T10:26:46.286Z,34.00
2023-04-08T10:29:31.959Z,32.53
2023-04-08T10:32:04.935Z,31.03
2023-04-08T10:34:52.080Z,30.67
2023-04-08T10:37:24.927Z,27.77
2023-04-08T10:39:57.836Z,28.43
2023-04-08T10:42:32.332Z,27.50
2023-04-08T10:45:05.621Z,27.10
2023-04-08T10:47:38.620Z,27.03
2023-04-08T10:50:15.597Z,24.43
2023-04-08T10:52:48.688Z,25.67
2023-04-08T10:55:24.036Z,26.33
2023-04-08T10:58:06.541Z,26.50
2023-04-08T11:00:40.251Z,27.30
2023-04-08T11:03:15.063Z,22.20
2023-04-08T11:05:50.276Z,22.17
2023-04-08T11:08:29.003Z,25.63
2023-04-08T11:11:04.308Z,23.17
2023-04-08T11:13:42.927Z,22.67
2023-04-08T11:16:22.762Z,20.97
2023-04-08T11:18:57.261Z,21.77
2023-04-08T11:21:30.454Z,25.87
2023-04-08T11:24:07.354Z,24.23
2023-04-08T11:26:42.816Z,28.17
2023-04-08T11:29:17.143Z,24.13
2023-04-08T11:31:51.377Z,23.17
2023-04-08T11:34:24.671Z,24.03
2023-04-08T11:36:58.473Z,23.40
2023-04-08T11:39:34.261Z,25.33
2023-04-08T11:42:07.038Z,26.43
2023-04-08T11:44:41.249Z,25.87
2023-04-08T11:47:14.193Z,24.67
2023-04-08T11:49:47.671Z,25.43
2023-04-08T11:52:20.447Z,25.17
2023-04-08T11:54:56.275Z,26.50
2023-04-08T11:57:29.598Z,24.50
2023-04-08T12:00:05.659Z,23.37
2023-04-08T12:02:41.776Z,24.07
2023-04-08T12:05:17.431Z,27.20
2023-04-08T12:07:50.637Z,24.40
2023-04-08T12:10:25.115Z,20.77
2023-04-08T12:12:58.032Z,21.47
2023-04-08T12:15:32.788Z,21.63
2023-04-08T12:18:06.852Z,20.43
2023-04-08T12:20:39.672Z,20.97
2023-04-08T12:23:12.695Z,21.57
2023-04-08T12:25:45.599Z,19.97
2023-04-08T12:28:18.501Z,22.90
2023-04-08T12:30:52.611Z,20.03
2023-04-08T12:33:25.397Z,18.37
2023-04-08T12:35:59.244Z,16.27
2023-04-08T12:38:33.513Z,14.93
2023-04-08T12:41:07.687Z,20.87
2023-04-08T12:43:43.370Z,18.43
2023-04-08T12:46:20.397Z,17.57
2023-04-08T12:49:03.082Z,19.23
2023-04-08T12:51:36.733Z,19.90
2023-04-08T12:54:09.797Z,22.20
2023-04-08T12:56:44.544Z,24.57
2023-04-08T12:59:17.415Z,19.57
2023-04-08T13:02:00.657Z,20.37
2023-04-08T13:04:33.597Z,21.30
2023-04-08T13:07:07.538Z,18.93
2023-04-08T13:09:43.730Z,18.30
2023-04-08T13:12:17.641Z,17.03
2023-04-08T13:14:50.716Z,19.90
2023-04-08T13:17:29.465Z,16.53
2023-04-08T13:20:02.710Z,16.93
2023-04-08T13:22:35.689Z,17.87
2023-04-08T13:25:11.133Z,15.30
2023-04-08T13:27:45.779Z,15.00
2023-04-08T13:30:19.239Z,18.47
2023-04-08T13:32:53.392Z,14.57
2023-04-08T13:35:26.808Z,14.93
2023-04-08T13:37:59.564Z,16.03
2023-04-08T13:40:33.236Z,16.10
2023-04-08T13:43:06.120Z,13.10
2023-04-08T13:45:38.975Z,12.17
2023-04-08T13:48:13.591Z,11.93
2023-04-08T13:50:46.795Z,13.50
2023-04-08T13:53:19.686Z,13.67
2023-04-08T13:55:55.255Z,14.13
2023-04-08T13:58:28.301Z,16.37
2023-04-08T14:01:01.160Z,15.70
2023-04-08T14:03:35.468Z,14.43
2023-04-08T14:06:08.413Z,15.07
2023-04-08T14:08:41.500Z,15.23
2023-04-08T14:11:14.748Z,14.57
2023-04-08T14:13:47.577Z,14.00
2023-04-08T14:16:20.405Z,13.33
2023-04-08T14:18:57.336Z,12.47
2023-04-08T14:21:30.169Z,12.43
2023-04-08T14:24:03.746Z,13.10
2023-04-08T14:26:36.754Z,13.63
2023-04-08T14:29:11.709Z,14.17
2023-04-08T14:31:44.530Z,12.90
2023-04-08T14:34:18.689Z,14.67
2023-04-08T14:36:51.950Z,13.37
2023-04-08T14:39:24.760Z,12.57
2023-04-08T14:41:58.439Z,12.90
2023-04-08T14:44:31.252Z,13.30
2023-04-08T14:47:04.003Z,13.30
2023-04-08T14:49:38.190Z,13.63
2023-04-08T14:52:11.145Z,11.73
2023-04-08T14:54:45.092Z,15.50
2023-04-08T14:57:18.044Z,13.43
2023-04-08T14:59:50.888Z,12.50
2023-04-08T15:02:23.736Z,12.87
2023-04-08T15:04:57.887Z,11.23
2023-04-08T15:07:30.864Z,12.07
2023-04-08T15:10:03.752Z,12.13
2023-04-08T15:12:36.722Z,13.80
2023-04-08T15:15:10.027Z,11.83
2023-04-08T15:17:43.147Z,12.40
2023-04-08T15:20:18.768Z,12.53
2023-04-08T15:22:51.954Z,11.27
2023-04-08T15:25:25.395Z,11.53
2023-04-08T15:27:58.229Z,11.23
2023-04-08T15:30:35.190Z,11.00
2023-04-08T15:33:08.811Z,11.47
2023-04-08T15:35:46.140Z,12.53
2023-04-08T15:38:19.396Z,11.33
2023-04-08T15:40:55.547Z,10.97
2023-04-08T15:43:28.448Z,10.63
2023-04-08T15:46:01.315Z,10.90
2023-04-08T15:48:34.057Z,10.50
2023-04-08T15:51:13.183Z,11.83
2023-04-08T15:53:46.147Z,12.47
2023-04-08T15:56:19.250Z,11.27
2023-04-08T15:58:53.266Z,11.27
2023-04-08T16:01:26.218Z,11.90
2023-04-08T16:03:59.273Z,12.47
2023-04-08T16:06:33.590Z,13.00
2023-04-08T16:09:06.446Z,11.57
2023-04-08T16:11:39.607Z,12.13
2023-04-08T16:14:14.415Z,12.07
2023-04-08T16:16:47.437Z,11.93
2023-04-08T16:19:22.178Z,11.73
2023-04-08T16:21:58.942Z,12.23
2023-04-08T16:24:31.892Z,11.73
2023-04-08T16:27:05.462Z,12.57
2023-04-08T16:29:38.874Z,12.60
2023-04-08T16:32:11.799Z,13.20
2023-04-08T16:34:45.139Z,11.93
2023-04-08T16:37:20.792Z,11.43
2023-04-08T16:39:53.831Z,10.83
2023-04-08T16:42:26.998Z,10.33
2023-04-08T16:45:01.124Z,10.67
2023-04-08T16:47:34.602Z,11.87
2023-04-08T16:50:08.209Z,11.07
2023-04-08T16:52:45.218Z,11.43
2023-04-08T16:55:23.436Z,10.83
2023-04-08T16:57:56.208Z,10.17
2023-04-08T17:00:28.971Z,10.70
2023-04-08T17:03:02.334Z,11.00
2023-04-08T17:05:35.416Z,11.73
2023-04-08T17:08:09.963Z,11.30
2023-04-08T17:10:45.310Z,11.27
2023-04-08T17:13:18.146Z,11.90
2023-04-08T17:15:51.432Z,11.80
2023-04-08T17:18:24.251Z,10.90
2023-04-08T17:20:57.058Z,11.10
2023-04-08T17:23:31.313Z,11.93
2023-04-08T17:26:06.527Z,15.83
2023-04-08T17:28:39.315Z,22.03
2023-04-08T17:31:12.031Z,19.23
2023-04-08T17:33:47.133Z,22.63
2023-04-08T17:36:20.087Z,27.47
2023-04-08T17:38:56.011Z,22.10
2023-04-08T17:41:39.031Z,25.90
2023-04-08T17:44:14.522Z,27.23
2023-04-08T17:46:47.550Z,24.10
2023-04-08T17:49:20.834Z,23.03
2023-04-08T17:51:53.703Z,42.63
2023-04-08T17:54:35.255Z,44.67
2023-04-08T17:57:08.031Z,40.73
2023-04-08T17:59:41.112Z,32.50
2023-04-08T18:02:14.061Z,35.63
2023-04-08T18:04:47.205Z,51.90
2023-04-08T18:07:20.060Z,91.30
2023-04-08T18:09:54.398Z,57.97
2023-04-08T18:12:31.619Z,64.27
2023-04-08T18:15:04.695Z,42.63
2023-04-08T18:17:37.559Z,42.63
2023-04-08T18:20:10.710Z,34.67
2023-04-08T18:22:43.943Z,40.50
2023-04-08T18:25:22.209Z,41.97
2023-04-08T18:27:55.217Z,35.03
2023-04-08T18:30:28.220Z,32.37
2023-04-08T18:33:01.982Z,38.63
2023-04-08T18:35:34.822Z,34.40
2023-04-08T18:38:07.596Z,29.40
2023-04-08T18:40:45.633Z,26.60
2023-04-08T18:43:18.334Z,25.70
2023-04-08T18:45:51.183Z,27.43
2023-04-08T18:48:24.052Z,26.93
2023-04-08T18:50:56.984Z,29.23
2023-04-08T18:53:29.744Z,28.17
2023-04-08T18:56:04.747Z,35.00
2023-04-08T18:58:40.607Z,37.50
2023-04-08T19:01:14.320Z,40.63
2023-04-08T19:03:47.323Z,42.40
2023-04-08T19:06:22.562Z,40.67
2023-04-08T19:08:55.851Z,41.73
2023-04-08T19:11:30.435Z,42.20
2023-04-08T19:14:03.268Z,37.97
2023-04-08T19:16:39.342Z,42.23
2023-04-08T19:19:14.157Z,40.87
2023-04-08T19:21:47.850Z,34.47
2023-04-08T19:24:20.970Z,28.23
2023-04-08T19:26:55.078Z,28.70
2023-04-08T19:29:29.759Z,26.77
2023-04-08T19:32:06.737Z,27.17
2023-04-08T19:34:39.708Z,24.60
2023-04-08T19:37:12.405Z,23.57
2023-04-08T19:39:47.937Z,22.93
2023-04-08T19:42:27.067Z,24.33
2023-04-08T19:45:01.126Z,24.20
2023-04-08T19:47:33.952Z,25.03
2023-04-08T19:50:10.864Z,23.77
2023-04-08T19:52:43.853Z,26.57
2023-04-08T19:55:16.852Z,27.10
2023-04-08T19:57:51.860Z,25.83
2023-04-08T20:00:26.015Z,25.07
2023-04-08T20:02:59.092Z,23.80
2023-04-08T20:05:32.028Z,23.23
2023-04-08T20:08:04.874Z,24.40
2023-04-08T20:10:37.799Z,24.37
2023-04-08T20:13:12.107Z,25.17
2023-04-08T20:15:45.173Z,23.73
2023-04-08T20:18:18.129Z,24.50
2023-04-08T20:20:51.212Z,23.57
2023-04-08T20:23:24.373Z,26.00
2023-04-08T20:25:58.117Z,22.57
2023-04-08T20:28:32.312Z,24.83
2023-04-08T20:31:05.409Z,24.03
2023-04-08T20:33:44.004Z,25.93
2023-04-08T20:36:16.796Z,25.33
2023-04-08T20:38:49.804Z,26.07
2023-04-08T20:41:24.005Z,26.10
2023-04-08T20:44:00.146Z,27.50
2023-04-08T20:46:33.047Z,26.20
2023-04-08T20:49:06.046Z,25.47
2023-04-08T20:51:39.484Z,28.47
2023-04-08T20:54:12.322Z,25.73
2023-04-08T20:56:45.187Z,24.90
2023-04-08T20:59:19.250Z,27.90
2023-04-08T21:01:53.946Z,27.60
2023-04-08T21:04:26.829Z,27.47
2023-04-08T21:06:59.579Z,26.37
2023-04-08T21:09:32.347Z,31.70
2023-04-08T21:12:05.457Z,31.50
2023-04-08T21:14:41.854Z,30.00
2023-04-08T21:17:15.286Z,29.13
2023-04-08T21:19:48.498Z,28.80
2023-04-08T21:22:23.301Z,27.87
2023-04-08T21:24:56.847Z,26.63
2023-04-08T21:27:29.635Z,28.27
2023-04-08T21:30:04.768Z,29.50
2023-04-08T21:32:39.455Z,27.97
2023-04-08T21:35:14.391Z,25.90
2023-04-08T21:37:47.150Z,26.10
2023-04-08T21:40:19.944Z,27.80
2023-04-08T21:42:52.901Z,26.57
2023-04-08T21:45:30.002Z,28.60
2023-04-08T21:48:03.837Z,28.80
2023-04-08T21:50:38.448Z,31.37
2023-04-08T21:53:11.355Z,31.53
2023-04-08T21:55:44.153Z,29.33
2023-04-08T21:58:17.261Z,28.40
2023-04-08T22:00:51.401Z,28.57
2023-04-08T22:03:24.333Z,31.30
2023-04-08T22:05:57.519Z,30.47
2023-04-08T22:08:32.463Z,30.37
2023-04-08T22:11:07.441Z,30.20
2023-04-08T22:13:40.289Z,30.67
2023-04-08T22:16:15.481Z,36.50
2023-04-08T22:18:48.415Z,29.80
2023-04-08T22:21:21.218Z,32.27
2023-04-08T22:23:54.133Z,31.13
2023-04-08T22:26:27.695Z,32.30
2023-04-08T22:29:00.412Z,32.03
2023-04-08T22:31:34.958Z,32.90
2023-04-08T22:34:07.752Z,33.53
2023-04-08T22:36:40.778Z,36.60
2023-04-08T22:39:13.484Z,35.23
2023-04-08T22:41:46.810Z,35.57
2023-04-08T22:44:19.491Z,38.70
2023-04-08T22:46:56.060Z,38.70
2023-04-08T22:49:31.204Z,37.30
2023-04-08T22:52:03.967Z,36.03
2023-04-08T22:54:36.940Z,36.50
2023-04-08T22:57:09.740Z,34.57
2023-04-08T22:59:42.519Z,35.03
2023-04-08T23:02:16.762Z,36.63
2023-04-08T23:04:54.367Z,38.07
2023-04-08T23:07:27.412Z,37.20
2023-04-08T23:10:00.219Z,35.10
2023-04-08T23:12:33.023Z,35.97
2023-04-08T23:15:08.796Z,34.37
2023-04-08T23:17:43.478Z,36.60
2023-04-08T23:20:16.390Z,34.80
2023-04-08T23:22:49.015Z,35.67
2023-04-08T23:25:21.756Z,36.63
2023-04-08T23:27:55.376Z,34.67
2023-04-08T23:30:28.142Z,35.30
2023-04-08T23:33:02.200Z,36.77
2023-04-08T23:35:35.426Z,36.47
2023-04-08T23:38:08.397Z,34.50
2023-04-08T23:40:41.363Z,34.97
2023-04-08T23:43:14.007Z,38.67
2023-04-08T23:45:46.994Z,36.57
2023-04-08T23:48:21.042Z,35.30
2023-04-08T23:50:53.932Z,33.50
2023-04-08T23:53:26.720Z,34.40
2023-04-08T23:56:07.266Z,33.47
2023-04-08T23:58:40.742Z,31.30
